sensor_id;sensor_type;location;lat;lon;timestamp;P1;durP1;ratioP1;P2;durP2;ratioP2
55461;SDS011;41327;45.102;20.624;2022-11-20T00:01:05;15.90;;;6.15;;
55461;SDS011;41327;45.102;20.624;2022-11-20T00:04:18;18.15;;;5.90;;
55461;SDS011;41327;45.102;20.624;2022-11-20T00:06:52;13.80;;;5.67;;
55461;SDS011;41327;45.102;20.624;2022-11-20T00:09:19;11.50;;;5.25;;
55461;SDS011;41327;45.102;20.624;2022-11-20T00:11:45;12.93;;;5.50;;
55461;SDS011;41327;45.102;20.624;2022-11-20T00:14:11;10.18;;;4.50;;
55461;SDS011;41327;45.102;20.624;2022-11-20T00:16:38;8.35;;;3.83;;
55461;SDS011;41327;45.102;20.624;2022-11-20T00:19:04;14.00;;;4.88;;
55461;SDS011;41327;45.102;20.624;2022-11-20T00:21:29;12.35;;;5.13;;
55461;SDS011;41327;45.102;20.624;2022-11-20T00:23:56;11.43;;;5.03;;
55461;SDS011;41327;45.102;20.624;2022-11-20T00:26:23;13.93;;;4.80;;
55461;SDS011;41327;45.102;20.624;2022-11-20T00:28:50;14.15;;;6.38;;
55461;SDS011;41327;45.102;20.624;2022-11-20T00:31:20;11.35;;;4.47;;
55461;SDS011;41327;45.102;20.624;2022-11-20T00:33:46;10.70;;;4.85;;
55461;SDS011;41327;45.102;20.624;2022-11-20T00:36:13;12.15;;;5.50;;
55461;SDS011;41327;45.102;20.624;2022-11-20T00:38:40;10.15;;;4.93;;
55461;SDS011;41327;45.102;20.624;2022-11-20T00:41:07;13.70;;;6.20;;
55461;SDS011;41327;45.102;20.624;2022-11-20T00:43:34;11.43;;;5.47;;
55461;SDS011;41327;45.102;20.624;2022-11-20T00:46:03;11.40;;;6.03;;
55461;SDS011;41327;45.102;20.624;2022-11-20T00:48:30;14.50;;;5.80;;
55461;SDS011;41327;45.102;20.624;2022-11-20T00:50:56;15.50;;;6.50;;
55461;SDS011;41327;45.102;20.624;2022-11-20T00:53:22;10.82;;;6.05;;
55461;SDS011;41327;45.102;20.624;2022-11-20T00:55:57;7.60;;;4.38;;
55461;SDS011;41327;45.102;20.624;2022-11-20T00:58:25;11.00;;;5.18;;
55461;SDS011;41327;45.102;20.624;2022-11-20T01:00:53;10.15;;;4.35;;
55461;SDS011;41327;45.102;20.624;2022-11-20T01:03:32;11.60;;;4.65;;
55461;SDS011;41327;45.102;20.624;2022-11-20T01:06:09;9.07;;;4.85;;
55461;SDS011;41327;45.102;20.624;2022-11-20T01:08:39;8.43;;;3.97;;
55461;SDS011;41327;45.102;20.624;2022-11-20T01:11:09;10.95;;;5.28;;
55461;SDS011;41327;45.102;20.624;2022-11-20T01:13:37;14.50;;;5.18;;
55461;SDS011;41327;45.102;20.624;2022-11-20T01:16:04;15.07;;;4.72;;
55461;SDS011;41327;45.102;20.624;2022-11-20T01:18:34;10.13;;;4.97;;
55461;SDS011;41327;45.102;20.624;2022-11-20T01:21:07;10.35;;;4.95;;
55461;SDS011;41327;45.102;20.624;2022-11-20T01:23:36;9.38;;;4.15;;
55461;SDS011;41327;45.102;20.624;2022-11-20T01:26:03;12.75;;;5.40;;
55461;SDS011;41327;45.102;20.624;2022-11-20T01:28:31;10.43;;;5.45;;
55461;SDS011;41327;45.102;20.624;2022-11-20T01:30:58;9.10;;;4.50;;
55461;SDS011;41327;45.102;20.624;2022-11-20T01:33:23;12.77;;;5.50;;
55461;SDS011;41327;45.102;20.624;2022-11-20T01:35:49;10.80;;;5.13;;
55461;SDS011;41327;45.102;20.624;2022-11-20T01:38:15;8.75;;;5.03;;
55461;SDS011;41327;45.102;20.624;2022-11-20T01:40:41;8.57;;;4.60;;
55461;SDS011;41327;45.102;20.624;2022-11-20T01:43:14;12.43;;;5.05;;
55461;SDS011;41327;45.102;20.624;2022-11-20T01:48:27;11.90;;;5.43;;
55461;SDS011;41327;45.102;20.624;2022-11-20T01:50:55;14.65;;;5.90;;
55461;SDS011;41327;45.102;20.624;2022-11-20T01:53:24;14.63;;;5.45;;
55461;SDS011;41327;45.102;20.624;2022-11-20T01:55:52;12.93;;;5.38;;
55461;SDS011;41327;45.102;20.624;2022-11-20T01:58:20;15.68;;;6.50;;
55461;SDS011;41327;45.102;20.624;2022-11-20T02:00:49;13.75;;;6.07;;
55461;SDS011;41327;45.102;20.624;2022-11-20T02:03:15;18.02;;;6.40;;
55461;SDS011;41327;45.102;20.624;2022-11-20T02:08:50;16.42;;;6.00;;
55461;SDS011;41327;45.102;20.624;2022-11-20T02:11:16;14.85;;;5.90;;
55461;SDS011;41327;45.102;20.624;2022-11-20T02:13:42;15.90;;;5.57;;
55461;SDS011;41327;45.102;20.624;2022-11-20T02:16:12;16.40;;;6.55;;
55461;SDS011;41327;45.102;20.624;2022-11-20T02:18:50;12.15;;;5.60;;
55461;SDS011;41327;45.102;20.624;2022-11-20T02:26:28;10.10;;;4.38;;
55461;SDS011;41327;45.102;20.624;2022-11-20T02:28:54;10.43;;;4.55;;
55461;SDS011;41327;45.102;20.624;2022-11-20T02:31:20;12.55;;;4.82;;
55461;SDS011;41327;45.102;20.624;2022-11-20T02:33:45;12.98;;;5.57;;
55461;SDS011;41327;45.102;20.624;2022-11-20T02:36:11;11.05;;;5.45;;
55461;SDS011;41327;45.102;20.624;2022-11-20T02:38:40;7.63;;;4.63;;
55461;SDS011;41327;45.102;20.624;2022-11-20T02:41:07;10.63;;;3.88;;
55461;SDS011;41327;45.102;20.624;2022-11-20T02:43:32;8.63;;;4.57;;
55461;SDS011;41327;45.102;20.624;2022-11-20T02:45:58;8.60;;;4.05;;
55461;SDS011;41327;45.102;20.624;2022-11-20T02:48:23;10.68;;;4.47;;
55461;SDS011;41327;45.102;20.624;2022-11-20T02:50:49;10.65;;;4.68;;
55461;SDS011;41327;45.102;20.624;2022-11-20T02:53:15;12.05;;;4.57;;
55461;SDS011;41327;45.102;20.624;2022-11-20T02:55:40;11.95;;;5.18;;
55461;SDS011;41327;45.102;20.624;2022-11-20T02:58:06;10.98;;;4.30;;
55461;SDS011;41327;45.102;20.624;2022-11-20T03:00:31;10.95;;;4.50;;
55461;SDS011;41327;45.102;20.624;2022-11-20T03:02:57;9.77;;;4.72;;
55461;SDS011;41327;45.102;20.624;2022-11-20T03:05:23;8.10;;;4.20;;
55461;SDS011;41327;45.102;20.624;2022-11-20T03:07:48;9.82;;;4.82;;
55461;SDS011;41327;45.102;20.624;2022-11-20T03:10:14;9.80;;;5.07;;
55461;SDS011;41327;45.102;20.624;2022-11-20T03:12:40;9.90;;;4.68;;
55461;SDS011;41327;45.102;20.624;2022-11-20T03:15:05;13.40;;;5.93;;
55461;SDS011;41327;45.102;20.624;2022-11-20T03:17:32;9.50;;;5.20;;
55461;SDS011;41327;45.102;20.624;2022-11-20T03:19:57;8.10;;;4.30;;
55461;SDS011;41327;45.102;20.624;2022-11-20T03:22:23;10.10;;;5.22;;
55461;SDS011;41327;45.102;20.624;2022-11-20T03:24:48;11.52;;;4.47;;
55461;SDS011;41327;45.102;20.624;2022-11-20T03:27:14;13.50;;;4.32;;
55461;SDS011;41327;45.102;20.624;2022-11-20T03:29:39;8.65;;;3.85;;
55461;SDS011;41327;45.102;20.624;2022-11-20T03:32:05;6.68;;;3.22;;
55461;SDS011;41327;45.102;20.624;2022-11-20T03:34:31;7.60;;;3.42;;
55461;SDS011;41327;45.102;20.624;2022-11-20T03:36:56;5.63;;;3.45;;
55461;SDS011;41327;45.102;20.624;2022-11-20T03:39:22;7.75;;;4.05;;
55461;SDS011;41327;45.102;20.624;2022-11-20T03:41:48;8.60;;;4.40;;
55461;SDS011;41327;45.102;20.624;2022-11-20T03:44:13;9.60;;;3.88;;
55461;SDS011;41327;45.102;20.624;2022-11-20T03:46:39;9.68;;;3.63;;
55461;SDS011;41327;45.102;20.624;2022-11-20T03:49:04;5.95;;;3.60;;
55461;SDS011;41327;45.102;20.624;2022-11-20T03:51:34;8.35;;;3.97;;
55461;SDS011;41327;45.102;20.624;2022-11-20T03:54:05;8.35;;;3.78;;
55461;SDS011;41327;45.102;20.624;2022-11-20T03:56:33;7.55;;;3.63;;
55461;SDS011;41327;45.102;20.624;2022-11-20T03:59:00;5.35;;;3.35;;
55461;SDS011;41327;45.102;20.624;2022-11-20T04:01:30;6.82;;;3.45;;
55461;SDS011;41327;45.102;20.624;2022-11-20T04:03:57;6.00;;;3.00;;
55461;SDS011;41327;45.102;20.624;2022-11-20T04:06:24;6.47;;;3.72;;
55461;SDS011;41327;45.102;20.624;2022-11-20T04:08:54;10.98;;;5.00;;
55461;SDS011;41327;45.102;20.624;2022-11-20T04:11:21;13.70;;;6.63;;
55461;SDS011;41327;45.102;20.624;2022-11-20T04:13:52;15.07;;;6.38;;
55461;SDS011;41327;45.102;20.624;2022-11-20T04:16:23;15.10;;;6.00;;
55461;SDS011;41327;45.102;20.624;2022-11-20T04:18:53;10.48;;;6.03;;
55461;SDS011;41327;45.102;20.624;2022-11-20T04:21:20;14.27;;;6.55;;
55461;SDS011;41327;45.102;20.624;2022-11-20T04:23:46;22.13;;;7.80;;
55461;SDS011;41327;45.102;20.624;2022-11-20T04:26:11;13.45;;;7.32;;
55461;SDS011;41327;45.102;20.624;2022-11-20T04:28:37;13.52;;;6.95;;
55461;SDS011;41327;45.102;20.624;2022-11-20T04:33:33;13.80;;;6.63;;
55461;SDS011;41327;45.102;20.624;2022-11-20T04:36:03;17.10;;;6.85;;
55461;SDS011;41327;45.102;20.624;2022-11-20T04:38:30;19.60;;;7.32;;
55461;SDS011;41327;45.102;20.624;2022-11-20T04:41:00;12.15;;;5.53;;
55461;SDS011;41327;45.102;20.624;2022-11-20T04:43:26;16.65;;;6.50;;
55461;SDS011;41327;45.102;20.624;2022-11-20T04:45:55;24.63;;;8.57;;
55461;SDS011;41327;45.102;20.624;2022-11-20T04:48:21;12.20;;;6.10;;
55461;SDS011;41327;45.102;20.624;2022-11-20T04:50:47;15.20;;;5.82;;
55461;SDS011;41327;45.102;20.624;2022-11-20T04:53:13;21.95;;;7.60;;
55461;SDS011;41327;45.102;20.624;2022-11-20T04:55:39;18.73;;;7.22;;
55461;SDS011;41327;45.102;20.624;2022-11-20T04:58:04;23.77;;;7.57;;
55461;SDS011;41327;45.102;20.624;2022-11-20T05:00:30;19.80;;;6.97;;
55461;SDS011;41327;45.102;20.624;2022-11-20T05:02:56;27.83;;;8.50;;
55461;SDS011;41327;45.102;20.624;2022-11-20T05:05:21;23.50;;;7.78;;
55461;SDS011;41327;45.102;20.624;2022-11-20T05:07:47;25.92;;;8.63;;
55461;SDS011;41327;45.102;20.624;2022-11-20T05:10:13;23.50;;;8.82;;
55461;SDS011;41327;45.102;20.624;2022-11-20T05:12:38;24.48;;;8.70;;
55461;SDS011;41327;45.102;20.624;2022-11-20T05:15:04;27.02;;;8.57;;
55461;SDS011;41327;45.102;20.624;2022-11-20T05:17:30;21.27;;;7.03;;
55461;SDS011;41327;45.102;20.624;2022-11-20T05:19:55;21.08;;;7.88;;
55461;SDS011;41327;45.102;20.624;2022-11-20T05:22:21;23.60;;;8.43;;
55461;SDS011;41327;45.102;20.624;2022-11-20T05:24:47;22.75;;;7.85;;
55461;SDS011;41327;45.102;20.624;2022-11-20T05:27:12;27.90;;;9.18;;
55461;SDS011;41327;45.102;20.624;2022-11-20T05:29:38;24.38;;;8.88;;
55461;SDS011;41327;45.102;20.624;2022-11-20T05:32:03;30.52;;;9.88;;
55461;SDS011;41327;45.102;20.624;2022-11-20T05:34:31;22.85;;;7.40;;
55461;SDS011;41327;45.102;20.624;2022-11-20T05:36:57;25.55;;;7.93;;
55461;SDS011;41327;45.102;20.624;2022-11-20T05:39:22;29.17;;;9.00;;
55461;SDS011;41327;45.102;20.624;2022-11-20T05:41:48;26.33;;;8.50;;
55461;SDS011;41327;45.102;20.624;2022-11-20T05:44:33;27.40;;;9.13;;
55461;SDS011;41327;45.102;20.624;2022-11-20T05:46:59;32.83;;;10.45;;
55461;SDS011;41327;45.102;20.624;2022-11-20T05:49:24;31.85;;;10.10;;
55461;SDS011;41327;45.102;20.624;2022-11-20T05:51:50;30.20;;;10.35;;
55461;SDS011;41327;45.102;20.624;2022-11-20T05:54:16;34.03;;;12.30;;
55461;SDS011;41327;45.102;20.624;2022-11-20T05:56:41;28.33;;;10.48;;
55461;SDS011;41327;45.102;20.624;2022-11-20T05:59:07;34.95;;;11.20;;
55461;SDS011;41327;45.102;20.624;2022-11-20T06:01:33;28.23;;;9.25;;
55461;SDS011;41327;45.102;20.624;2022-11-20T06:03:58;36.67;;;11.85;;
55461;SDS011;41327;45.102;20.624;2022-11-20T06:06:24;36.25;;;11.90;;
55461;SDS011;41327;45.102;20.624;2022-11-20T06:08:51;17.80;;;8.38;;
55461;SDS011;41327;45.102;20.624;2022-11-20T06:11:16;20.88;;;8.32;;
55461;SDS011;41327;45.102;20.624;2022-11-20T06:13:43;25.27;;;8.35;;
55461;SDS011;41327;45.102;20.624;2022-11-20T06:16:09;18.85;;;7.43;;
55461;SDS011;41327;45.102;20.624;2022-11-20T06:18:36;24.83;;;8.95;;
55461;SDS011;41327;45.102;20.624;2022-11-20T06:23:29;35.97;;;10.55;;
55461;SDS011;41327;45.102;20.624;2022-11-20T06:25:56;20.33;;;8.20;;
55461;SDS011;41327;45.102;20.624;2022-11-20T06:28:22;15.57;;;6.53;;
55461;SDS011;41327;45.102;20.624;2022-11-20T06:30:48;21.75;;;7.18;;
55461;SDS011;41327;45.102;20.624;2022-11-20T06:33:13;15.55;;;7.07;;
55461;SDS011;41327;45.102;20.624;2022-11-20T06:35:39;24.77;;;8.90;;
55461;SDS011;41327;45.102;20.624;2022-11-20T06:38:05;23.95;;;8.90;;
55461;SDS011;41327;45.102;20.624;2022-11-20T06:40:30;33.60;;;11.32;;
55461;SDS011;41327;45.102;20.624;2022-11-20T06:42:56;28.17;;;12.00;;
55461;SDS011;41327;45.102;20.624;2022-11-20T06:45:21;32.78;;;12.25;;
55461;SDS011;41327;45.102;20.624;2022-11-20T06:47:47;35.80;;;13.25;;
55461;SDS011;41327;45.102;20.624;2022-11-20T06:50:13;25.45;;;10.68;;
55461;SDS011;41327;45.102;20.624;2022-11-20T06:52:38;26.50;;;10.82;;
55461;SDS011;41327;45.102;20.624;2022-11-20T06:55:04;33.00;;;12.38;;
55461;SDS011;41327;45.102;20.624;2022-11-20T06:57:30;36.47;;;11.82;;
55461;SDS011;41327;45.102;20.624;2022-11-20T06:59:55;30.15;;;9.80;;
55461;SDS011;41327;45.102;20.624;2022-11-20T07:02:21;25.23;;;10.43;;
55461;SDS011;41327;45.102;20.624;2022-11-20T07:04:46;28.55;;;11.75;;
55461;SDS011;41327;45.102;20.624;2022-11-20T07:07:12;49.20;;;16.27;;
55461;SDS011;41327;45.102;20.624;2022-11-20T07:09:38;93.38;;;28.92;;
55461;SDS011;41327;45.102;20.624;2022-11-20T07:12:03;100.20;;;31.65;;
55461;SDS011;41327;45.102;20.624;2022-11-20T07:14:29;64.78;;;22.10;;
55461;SDS011;41327;45.102;20.624;2022-11-20T07:16:55;60.63;;;20.40;;
55461;SDS011;41327;45.102;20.624;2022-11-20T07:19:20;89.68;;;31.23;;
55461;SDS011;41327;45.102;20.624;2022-11-20T07:21:46;118.13;;;35.28;;
55461;SDS011;41327;45.102;20.624;2022-11-20T07:24:11;30.40;;;12.43;;
55461;SDS011;41327;45.102;20.624;2022-11-20T07:26:37;52.35;;;19.73;;
55461;SDS011;41327;45.102;20.624;2022-11-20T07:29:03;47.35;;;20.05;;
55461;SDS011;41327;45.102;20.624;2022-11-20T07:31:28;57.30;;;23.80;;
55461;SDS011;41327;45.102;20.624;2022-11-20T07:33:54;55.13;;;22.45;;
55461;SDS011;41327;45.102;20.624;2022-11-20T07:36:19;51.85;;;22.20;;
55461;SDS011;41327;45.102;20.624;2022-11-20T07:38:45;61.15;;;24.13;;
55461;SDS011;41327;45.102;20.624;2022-11-20T07:41:10;24.65;;;10.68;;
55461;SDS011;41327;45.102;20.624;2022-11-20T07:43:36;40.10;;;17.45;;
55461;SDS011;41327;45.102;20.624;2022-11-20T07:46:02;56.05;;;20.00;;
55461;SDS011;41327;45.102;20.624;2022-11-20T07:48:29;72.45;;;24.75;;
55461;SDS011;41327;45.102;20.624;2022-11-20T07:50:55;49.85;;;20.83;;
55461;SDS011;41327;45.102;20.624;2022-11-20T07:53:21;50.67;;;21.83;;
55461;SDS011;41327;45.102;20.624;2022-11-20T07:55:47;35.00;;;16.58;;
55461;SDS011;41327;45.102;20.624;2022-11-20T07:58:14;34.88;;;16.65;;
55461;SDS011;41327;45.102;20.624;2022-11-20T08:00:40;50.88;;;24.95;;
55461;SDS011;41327;45.102;20.624;2022-11-20T08:03:06;45.28;;;22.67;;
55461;SDS011;41327;45.102;20.624;2022-11-20T08:05:32;51.95;;;24.88;;
55461;SDS011;41327;45.102;20.624;2022-11-20T08:07:57;43.05;;;23.85;;
55461;SDS011;41327;45.102;20.624;2022-11-20T08:10:23;32.13;;;16.20;;
55461;SDS011;41327;45.102;20.624;2022-11-20T08:12:49;38.92;;;20.75;;
55461;SDS011;41327;45.102;20.624;2022-11-20T08:15:34;22.30;;;9.63;;
55461;SDS011;41327;45.102;20.624;2022-11-20T08:18:04;35.17;;;13.48;;
55461;SDS011;41327;45.102;20.624;2022-11-20T08:20:31;25.77;;;11.82;;
55461;SDS011;41327;45.102;20.624;2022-11-20T08:22:58;31.55;;;13.63;;
55461;SDS011;41327;45.102;20.624;2022-11-20T08:25:28;24.98;;;11.48;;
55461;SDS011;41327;45.102;20.624;2022-11-20T08:27:54;22.98;;;10.18;;
55461;SDS011;41327;45.102;20.624;2022-11-20T08:30:21;34.50;;;13.30;;
55461;SDS011;41327;45.102;20.624;2022-11-20T08:32:47;28.80;;;12.73;;
55461;SDS011;41327;45.102;20.624;2022-11-20T08:35:12;29.70;;;12.73;;
55461;SDS011;41327;45.102;20.624;2022-11-20T08:37:38;66.80;;;20.27;;
55461;SDS011;41327;45.102;20.624;2022-11-20T08:40:08;31.48;;;13.70;;
55461;SDS011;41327;45.102;20.624;2022-11-20T08:42:35;27.40;;;11.30;;
55461;SDS011;41327;45.102;20.624;2022-11-20T08:45:00;27.40;;;12.00;;
55461;SDS011;41327;45.102;20.624;2022-11-20T08:47:26;25.35;;;11.13;;
55461;SDS011;41327;45.102;20.624;2022-11-20T08:49:51;25.90;;;10.95;;
55461;SDS011;41327;45.102;20.624;2022-11-20T08:52:17;30.92;;;13.70;;
55461;SDS011;41327;45.102;20.624;2022-11-20T08:54:42;55.83;;;20.45;;
55461;SDS011;41327;45.102;20.624;2022-11-20T08:57:08;40.25;;;16.55;;
55461;SDS011;41327;45.102;20.624;2022-11-20T08:59:33;30.50;;;13.50;;
55461;SDS011;41327;45.102;20.624;2022-11-20T09:01:59;50.92;;;20.42;;
55461;SDS011;41327;45.102;20.624;2022-11-20T09:04:26;137.15;;;63.05;;
55461;SDS011;41327;45.102;20.624;2022-11-20T09:06:52;91.88;;;40.88;;
55461;SDS011;41327;45.102;20.624;2022-11-20T09:09:17;45.03;;;21.75;;
55461;SDS011;41327;45.102;20.624;2022-11-20T09:11:43;33.15;;;14.13;;
55461;SDS011;41327;45.102;20.624;2022-11-20T09:14:09;39.97;;;18.20;;
55461;SDS011;41327;45.102;20.624;2022-11-20T09:16:35;56.90;;;31.42;;
55461;SDS011;41327;45.102;20.624;2022-11-20T09:19:00;36.17;;;18.13;;
55461;SDS011;41327;45.102;20.624;2022-11-20T09:21:26;56.97;;;25.00;;
55461;SDS011;41327;45.102;20.624;2022-11-20T09:23:52;46.63;;;23.50;;
55461;SDS011;41327;45.102;20.624;2022-11-20T09:26:17;38.45;;;18.83;;
55461;SDS011;41327;45.102;20.624;2022-11-20T09:28:43;41.85;;;19.98;;
55461;SDS011;41327;45.102;20.624;2022-11-20T09:31:09;38.08;;;15.73;;
55461;SDS011;41327;45.102;20.624;2022-11-20T09:34:01;35.28;;;15.50;;
55461;SDS011;41327;45.102;20.624;2022-11-20T09:36:26;51.85;;;22.25;;
55461;SDS011;41327;45.102;20.624;2022-11-20T09:38:52;44.65;;;21.65;;
55461;SDS011;41327;45.102;20.624;2022-11-20T09:43:55;46.92;;;21.45;;
55461;SDS011;41327;45.102;20.624;2022-11-20T09:49:09;43.47;;;20.25;;
55461;SDS011;41327;45.102;20.624;2022-11-20T09:51:46;57.28;;;29.58;;
55461;SDS011;41327;45.102;20.624;2022-11-20T09:54:37;42.55;;;18.08;;
55461;SDS011;41327;45.102;20.624;2022-11-20T09:57:23;38.75;;;19.38;;
55461;SDS011;41327;45.102;20.624;2022-11-20T10:00:00;30.85;;;13.07;;
55461;SDS011;41327;45.102;20.624;2022-11-20T10:02:37;33.08;;;15.15;;
55461;SDS011;41327;45.102;20.624;2022-11-20T10:05:27;51.92;;;24.08;;
55461;SDS011;41327;45.102;20.624;2022-11-20T10:10:42;34.78;;;13.10;;
55461;SDS011;41327;45.102;20.624;2022-11-20T10:13:13;46.80;;;20.58;;
55461;SDS011;41327;45.102;20.624;2022-11-20T10:15:52;47.65;;;22.50;;
55461;SDS011;41327;45.102;20.624;2022-11-20T10:29:42;53.22;;;26.25;;
55461;SDS011;41327;45.102;20.624;2022-11-20T10:32:19;56.50;;;25.88;;
55461;SDS011;41327;45.102;20.624;2022-11-20T10:35:07;56.35;;;24.33;;
55461;SDS011;41327;45.102;20.624;2022-11-20T10:37:51;40.42;;;17.25;;
55461;SDS011;41327;45.102;20.624;2022-11-20T10:40:34;50.85;;;20.70;;
55461;SDS011;41327;45.102;20.624;2022-11-20T10:48:24;38.85;;;17.75;;
55461;SDS011;41327;45.102;20.624;2022-11-20T10:53:46;39.17;;;19.83;;
55461;SDS011;41327;45.102;20.624;2022-11-20T10:56:34;27.75;;;12.73;;
55461;SDS011;41327;45.102;20.624;2022-11-20T10:59:18;33.53;;;15.73;;
55461;SDS011;41327;45.102;20.624;2022-11-20T11:01:52;37.78;;;16.25;;
55461;SDS011;41327;45.102;20.624;2022-11-20T11:07:15;39.35;;;16.80;;
55461;SDS011;41327;45.102;20.624;2022-11-20T11:10:01;32.80;;;15.40;;
55461;SDS011;41327;45.102;20.624;2022-11-20T11:12:27;28.13;;;15.23;;
55461;SDS011;41327;45.102;20.624;2022-11-20T11:14:55;36.45;;;18.98;;
55461;SDS011;41327;45.102;20.624;2022-11-20T11:17:45;23.75;;;11.55;;
55461;SDS011;41327;45.102;20.624;2022-11-20T11:20:25;55.55;;;28.55;;
55461;SDS011;41327;45.102;20.624;2022-11-20T11:22:57;44.90;;;26.35;;
55461;SDS011;41327;45.102;20.624;2022-11-20T11:28:04;47.67;;;21.55;;
55461;SDS011;41327;45.102;20.624;2022-11-20T11:30:47;36.03;;;16.48;;
55461;SDS011;41327;45.102;20.624;2022-11-20T11:33:25;38.80;;;19.75;;
55461;SDS011;41327;45.102;20.624;2022-11-20T11:35:56;35.58;;;15.90;;
55461;SDS011;41327;45.102;20.624;2022-11-20T11:38:37;36.08;;;14.82;;
55461;SDS011;41327;45.102;20.624;2022-11-20T11:41:05;40.22;;;19.35;;
55461;SDS011;41327;45.102;20.624;2022-11-20T11:43:35;39.63;;;17.65;;
55461;SDS011;41327;45.102;20.624;2022-11-20T11:49:10;23.90;;;13.40;;
55461;SDS011;41327;45.102;20.624;2022-11-20T11:54:42;39.30;;;17.23;;
55461;SDS011;41327;45.102;20.624;2022-11-20T11:57:29;30.65;;;15.52;;
55461;SDS011;41327;45.102;20.624;2022-11-20T12:00:14;50.75;;;22.88;;
55461;SDS011;41327;45.102;20.624;2022-11-20T12:02:49;34.78;;;16.42;;
55461;SDS011;41327;45.102;20.624;2022-11-20T12:05:50;50.78;;;23.08;;
55461;SDS011;41327;45.102;20.624;2022-11-20T12:16:15;44.20;;;19.75;;
55461;SDS011;41327;45.102;20.624;2022-11-20T12:18:43;32.38;;;13.63;;
55461;SDS011;41327;45.102;20.624;2022-11-20T12:24:01;45.17;;;20.98;;
55461;SDS011;41327;45.102;20.624;2022-11-20T12:31:48;39.30;;;17.25;;
55461;SDS011;41327;45.102;20.624;2022-11-20T12:39:56;41.47;;;18.85;;
55461;SDS011;41327;45.102;20.624;2022-11-20T12:42:27;41.17;;;16.35;;
55461;SDS011;41327;45.102;20.624;2022-11-20T12:45:35;34.70;;;16.35;;
55461;SDS011;41327;45.102;20.624;2022-11-20T12:48:19;52.83;;;24.42;;
55461;SDS011;41327;45.102;20.624;2022-11-20T12:56:42;45.38;;;20.20;;
55461;SDS011;41327;45.102;20.624;2022-11-20T12:59:20;39.70;;;17.58;;
55461;SDS011;41327;45.102;20.624;2022-11-20T13:07:35;33.20;;;14.10;;
55461;SDS011;41327;45.102;20.624;2022-11-20T13:10:01;39.00;;;16.83;;
55461;SDS011;41327;45.102;20.624;2022-11-20T13:12:40;40.13;;;17.35;;
55461;SDS011;41327;45.102;20.624;2022-11-20T13:18:10;30.65;;;13.88;;
55461;SDS011;41327;45.102;20.624;2022-11-20T13:20:41;29.13;;;12.57;;
55461;SDS011;41327;45.102;20.624;2022-11-20T13:23:08;23.13;;;10.57;;
55461;SDS011;41327;45.102;20.624;2022-11-20T13:25:34;28.63;;;13.52;;
55461;SDS011;41327;45.102;20.624;2022-11-20T13:28:03;22.98;;;10.80;;
55461;SDS011;41327;45.102;20.624;2022-11-20T13:30:30;19.38;;;9.43;;
55461;SDS011;41327;45.102;20.624;2022-11-20T13:36:04;31.45;;;15.90;;
55461;SDS011;41327;45.102;20.624;2022-11-20T13:38:43;33.17;;;14.10;;
55461;SDS011;41327;45.102;20.624;2022-11-20T13:41:10;41.67;;;16.95;;
55461;SDS011;41327;45.102;20.624;2022-11-20T13:43:54;90.35;;;33.55;;
55461;SDS011;41327;45.102;20.624;2022-11-20T13:46:22;140.40;;;55.60;;
55461;SDS011;41327;45.102;20.624;2022-11-20T13:48:49;77.78;;;30.10;;
55461;SDS011;41327;45.102;20.624;2022-11-20T14:02:19;89.75;;;40.22;;
55461;SDS011;41327;45.102;20.624;2022-11-20T14:04:47;52.10;;;21.88;;
55461;SDS011;41327;45.102;20.624;2022-11-20T14:07:14;70.97;;;32.03;;
55461;SDS011;41327;45.102;20.624;2022-11-20T14:09:49;48.15;;;20.00;;
55461;SDS011;41327;45.102;20.624;2022-11-20T14:12:19;39.05;;;17.67;;
55461;SDS011;41327;45.102;20.624;2022-11-20T14:14:49;51.08;;;19.50;;
55461;SDS011;41327;45.102;20.624;2022-11-20T14:17:20;74.30;;;32.42;;
55461;SDS011;41327;45.102;20.624;2022-11-20T14:19:49;67.53;;;26.40;;
55461;SDS011;41327;45.102;20.624;2022-11-20T14:24:46;58.03;;;23.65;;
55461;SDS011;41327;45.102;20.624;2022-11-20T14:27:18;84.35;;;37.28;;
55461;SDS011;41327;45.102;20.624;2022-11-20T14:29:49;53.65;;;21.63;;
55461;SDS011;41327;45.102;20.624;2022-11-20T14:32:16;48.47;;;19.63;;
55461;SDS011;41327;45.102;20.624;2022-11-20T14:34:43;51.75;;;22.27;;
55461;SDS011;41327;45.102;20.624;2022-11-20T14:37:11;45.38;;;17.25;;
55461;SDS011;41327;45.102;20.624;2022-11-20T14:39:40;59.50;;;22.58;;
55461;SDS011;41327;45.102;20.624;2022-11-20T14:42:17;54.75;;;23.42;;
55461;SDS011;41327;45.102;20.624;2022-11-20T14:44:45;66.82;;;25.40;;
55461;SDS011;41327;45.102;20.624;2022-11-20T14:47:15;63.40;;;21.60;;
55461;SDS011;41327;45.102;20.624;2022-11-20T14:49:43;65.15;;;26.17;;
55461;SDS011;41327;45.102;20.624;2022-11-20T14:52:30;58.45;;;22.25;;
55461;SDS011;41327;45.102;20.624;2022-11-20T14:54:56;58.25;;;21.63;;
55461;SDS011;41327;45.102;20.624;2022-11-20T14:57:31;57.65;;;21.30;;
55461;SDS011;41327;45.102;20.624;2022-11-20T15:00:18;52.83;;;20.38;;
55461;SDS011;41327;45.102;20.624;2022-11-20T15:02:46;54.78;;;22.73;;
55461;SDS011;41327;45.102;20.624;2022-11-20T15:05:13;52.20;;;19.35;;
55461;SDS011;41327;45.102;20.624;2022-11-20T15:07:40;50.90;;;19.98;;
55461;SDS011;41327;45.102;20.624;2022-11-20T15:10:11;45.28;;;18.05;;
55461;SDS011;41327;45.102;20.624;2022-11-20T15:12:40;52.25;;;16.05;;
55461;SDS011;41327;45.102;20.624;2022-11-20T15:15:12;45.55;;;16.20;;
55461;SDS011;41327;45.102;20.624;2022-11-20T15:17:40;53.15;;;19.20;;
55461;SDS011;41327;45.102;20.624;2022-11-20T15:20:11;47.50;;;19.05;;
55461;SDS011;41327;45.102;20.624;2022-11-20T15:22:39;57.20;;;20.45;;
55461;SDS011;41327;45.102;20.624;2022-11-20T15:25:13;54.35;;;20.73;;
55461;SDS011;41327;45.102;20.624;2022-11-20T15:27:40;51.45;;;20.30;;
55461;SDS011;41327;45.102;20.624;2022-11-20T15:30:12;46.17;;;19.65;;
55461;SDS011;41327;45.102;20.624;2022-11-20T15:32:40;57.05;;;20.95;;
55461;SDS011;41327;45.102;20.624;2022-11-20T15:35:06;64.03;;;20.92;;
55461;SDS011;41327;45.102;20.624;2022-11-20T15:37:32;51.55;;;17.85;;
55461;SDS011;41327;45.102;20.624;2022-11-20T15:39:57;50.80;;;17.27;;
55461;SDS011;41327;45.102;20.624;2022-11-20T15:42:23;71.82;;;23.20;;
55461;SDS011;41327;45.102;20.624;2022-11-20T15:44:48;70.05;;;23.15;;
55461;SDS011;41327;45.102;20.624;2022-11-20T15:47:14;78.63;;;27.05;;
55461;SDS011;41327;45.102;20.624;2022-11-20T15:49:39;76.85;;;26.77;;
55461;SDS011;41327;45.102;20.624;2022-11-20T15:52:05;70.85;;;26.80;;
55461;SDS011;41327;45.102;20.624;2022-11-20T15:54:31;62.70;;;21.60;;
55461;SDS011;41327;45.102;20.624;2022-11-20T15:56:56;53.50;;;20.75;;
55461;SDS011;41327;45.102;20.624;2022-11-20T15:59:22;63.65;;;22.63;;
55461;SDS011;41327;45.102;20.624;2022-11-20T16:01:47;92.43;;;34.45;;
55461;SDS011;41327;45.102;20.624;2022-11-20T16:04:14;92.40;;;35.15;;
55461;SDS011;41327;45.102;20.624;2022-11-20T16:06:40;157.85;;;55.63;;
55461;SDS011;41327;45.102;20.624;2022-11-20T16:09:06;99.32;;;35.72;;
55461;SDS011;41327;45.102;20.624;2022-11-20T16:11:32;98.63;;;37.97;;
55461;SDS011;41327;45.102;20.624;2022-11-20T16:13:58;141.02;;;46.47;;